Aeroporto :
LOGIN :

Iscrizione | Disclaimer

   EN    FR    IT 

 










Sommario :    VFR   VFR Marginale   IFR   IFR Intensivo   IFR Molto Intensivo
Visibilità : 
Base nubi : 
>= 8 km
>= 3000ft
5 / 8 km
1000 / 3000 ft
1500m / 5 km
500 / 1000 ft
800 / 1500m
200 / 500 ft
< 800m
< 200 ft
Simboli :   Temporali  Nebbia  Neve Forte  Precipitazioni Forti  Vento > 20 kt
SIGMETs :   Varie  Temporali  Ghiacco  Turbolenza  Onda orograficha  Ceneri Vulcaniche






- Altitudine del aeroporto : 433 ft


LFOC - Chateaudun

ULTIMO METAR :
  • 122100Z AUTO 22009KT 9999 ////// 02/02 Q1004

METARs OBSOLETI :
  • 122030Z AUTO 22008KT 9999 ////// 01/01 Q1005
  • 122000Z AUTO 22005KT 9999 ////// 01/00 Q1005
  • 121930Z AUTO 22005KT 9999 ////// 01/01 Q1004
  • 121900Z AUTO 23006KT 9999 ////// 01/01 Q1004
  • 121830Z AUTO 25005KT 9999 ////// 02/01 Q1005

TAF TAF LFOC
Valido dal 12 a 09 ore il 13 a 09 ore UTC


120800Z 1209/1309 24012KT 9999 SCT025 SCT050
TEMPO 1211/1217 25015G25KT 4000 -SHRA BKN025TCU
PROB30
TEMPO 1301/1306 4000 BR



MetMap, La meteo Aeronautica in un colpo d'occhio ! - Copyright ORBIFLY Dicembre 2007 - Disclaimer

ORBIFLY MET'MAP TEAM :

Programmazione e sviluppo : Alexandra Zaïnal
Concezione e sviluppo : Baudouin d'Aumeries
Co-Programmazione e sviluppo : Marc-Olivier Méhu
Supporto tecnico e logistico : Manuel Goepfert
Aiuto per la traduzione : Arnaldo La Scala

Contatto : metmap@orbifly.com




FONTI E CREDITI :

   NOAA